sensor_id;sensor_type;location;lat;lon;timestamp;P1;durP1;ratioP1;P2;durP2;ratioP2
8139;SDS011;4111;50.972;7.072;2022-07-30T00:00:09;6.57;;;3.57;;
8139;SDS011;4111;50.972;7.072;2022-07-30T00:02:36;5.77;;;4.73;;
8139;SDS011;4111;50.972;7.072;2022-07-30T00:05:03;5.23;;;4.23;;
8139;SDS011;4111;50.972;7.072;2022-07-30T00:07:30;5.27;;;3.87;;
8139;SDS011;4111;50.972;7.072;2022-07-30T00:09:56;4.80;;;3.53;;
8139;SDS011;4111;50.972;7.072;2022-07-30T00:12:23;5.10;;;3.70;;
8139;SDS011;4111;50.972;7.072;2022-07-30T00:14:49;4.83;;;4.00;;
8139;SDS011;4111;50.972;7.072;2022-07-30T00:17:16;5.60;;;4.20;;
8139;SDS011;4111;50.972;7.072;2022-07-30T00:19:44;6.07;;;4.13;;
8139;SDS011;4111;50.972;7.072;2022-07-30T00:22:10;6.13;;;4.10;;
8139;SDS011;4111;50.972;7.072;2022-07-30T00:24:37;6.50;;;4.50;;
8139;SDS011;4111;50.972;7.072;2022-07-30T00:27:03;7.00;;;4.40;;
8139;SDS011;4111;50.972;7.072;2022-07-30T00:29:30;6.23;;;4.50;;
8139;SDS011;4111;50.972;7.072;2022-07-30T00:31:56;4.27;;;3.90;;
8139;SDS011;4111;50.972;7.072;2022-07-30T00:34:23;8.60;;;4.53;;
8139;SDS011;4111;50.972;7.072;2022-07-30T00:36:49;5.37;;;4.20;;
8139;SDS011;4111;50.972;7.072;2022-07-30T00:39:16;5.70;;;4.23;;
8139;SDS011;4111;50.972;7.072;2022-07-30T00:41:52;6.43;;;4.30;;
8139;SDS011;4111;50.972;7.072;2022-07-30T00:44:23;7.13;;;4.20;;
8139;SDS011;4111;50.972;7.072;2022-07-30T00:46:50;5.40;;;3.80;;
8139;SDS011;4111;50.972;7.072;2022-07-30T00:49:17;4.40;;;4.00;;
8139;SDS011;4111;50.972;7.072;2022-07-30T00:51:44;7.87;;;3.93;;
8139;SDS011;4111;50.972;7.072;2022-07-30T00:54:10;5.20;;;4.17;;
8139;SDS011;4111;50.972;7.072;2022-07-30T00:56:37;7.30;;;4.10;;
8139;SDS011;4111;50.972;7.072;2022-07-30T00:59:03;5.27;;;4.23;;
8139;SDS011;4111;50.972;7.072;2022-07-30T01:01:31;5.43;;;4.17;;
8139;SDS011;4111;50.972;7.072;2022-07-30T01:03:58;5.57;;;4.13;;
8139;SDS011;4111;50.972;7.072;2022-07-30T01:06:24;4.87;;;4.30;;
8139;SDS011;4111;50.972;7.072;2022-07-30T01:08:51;4.50;;;4.10;;
8139;SDS011;4111;50.972;7.072;2022-07-30T01:11:19;5.90;;;4.13;;
8139;SDS011;4111;50.972;7.072;2022-07-30T01:13:48;6.17;;;4.33;;
8139;SDS011;4111;50.972;7.072;2022-07-30T01:16:15;5.27;;;4.23;;
8139;SDS011;4111;50.972;7.072;2022-07-30T01:18:42;4.40;;;4.00;;
8139;SDS011;4111;50.972;7.072;2022-07-30T01:21:36;8.30;;;4.67;;
8139;SDS011;4111;50.972;7.072;2022-07-30T01:24:09;6.57;;;4.30;;
8139;SDS011;4111;50.972;7.072;2022-07-30T01:26:46;5.90;;;4.23;;
8139;SDS011;4111;50.972;7.072;2022-07-30T01:29:14;5.23;;;4.13;;
8139;SDS011;4111;50.972;7.072;2022-07-30T01:31:42;6.70;;;3.93;;
8139;SDS011;4111;50.972;7.072;2022-07-30T01:34:11;4.80;;;4.30;;
8139;SDS011;4111;50.972;7.072;2022-07-30T01:36:41;5.80;;;4.53;;
8139;SDS011;4111;50.972;7.072;2022-07-30T01:39:11;5.73;;;4.00;;
8139;SDS011;4111;50.972;7.072;2022-07-30T01:41:40;4.23;;;3.67;;
8139;SDS011;4111;50.972;7.072;2022-07-30T01:44:09;4.57;;;3.97;;
8139;SDS011;4111;50.972;7.072;2022-07-30T01:46:37;7.03;;;4.60;;
8139;SDS011;4111;50.972;7.072;2022-07-30T01:49:04;4.30;;;3.60;;
8139;SDS011;4111;50.972;7.072;2022-07-30T01:51:34;6.60;;;4.33;;
8139;SDS011;4111;50.972;7.072;2022-07-30T01:54:03;4.70;;;4.20;;
8139;SDS011;4111;50.972;7.072;2022-07-30T01:56:33;5.80;;;4.67;;
8139;SDS011;4111;50.972;7.072;2022-07-30T01:59:01;4.53;;;4.13;;
8139;SDS011;4111;50.972;7.072;2022-07-30T02:01:30;5.50;;;4.60;;
8139;SDS011;4111;50.972;7.072;2022-07-30T02:03:57;4.77;;;4.20;;
8139;SDS011;4111;50.972;7.072;2022-07-30T02:06:30;5.27;;;4.77;;
8139;SDS011;4111;50.972;7.072;2022-07-30T02:09:00;5.63;;;4.37;;
8139;SDS011;4111;50.972;7.072;2022-07-30T02:11:38;6.07;;;4.37;;
8139;SDS011;4111;50.972;7.072;2022-07-30T02:14:40;6.67;;;4.37;;
8139;SDS011;4111;50.972;7.072;2022-07-30T02:17:16;5.90;;;4.70;;
8139;SDS011;4111;50.972;7.072;2022-07-30T02:19:55;4.67;;;4.20;;
8139;SDS011;4111;50.972;7.072;2022-07-30T02:22:27;8.77;;;4.90;;
8139;SDS011;4111;50.972;7.072;2022-07-30T02:24:59;6.80;;;4.30;;
8139;SDS011;4111;50.972;7.072;2022-07-30T02:27:29;5.93;;;4.37;;
8139;SDS011;4111;50.972;7.072;2022-07-30T02:29:58;5.80;;;4.60;;
8139;SDS011;4111;50.972;7.072;2022-07-30T02:32:26;4.70;;;4.30;;
8139;SDS011;4111;50.972;7.072;2022-07-30T02:34:59;5.43;;;4.57;;
8139;SDS011;4111;50.972;7.072;2022-07-30T02:37:30;7.73;;;4.20;;
8139;SDS011;4111;50.972;7.072;2022-07-30T02:40:09;8.93;;;4.53;;
8139;SDS011;4111;50.972;7.072;2022-07-30T02:42:39;5.03;;;4.50;;
8139;SDS011;4111;50.972;7.072;2022-07-30T02:45:07;6.30;;;4.60;;
8139;SDS011;4111;50.972;7.072;2022-07-30T02:47:35;4.97;;;4.07;;
8139;SDS011;4111;50.972;7.072;2022-07-30T02:50:04;7.83;;;4.37;;
8139;SDS011;4111;50.972;7.072;2022-07-30T02:52:33;5.23;;;4.70;;
8139;SDS011;4111;50.972;7.072;2022-07-30T02:55:00;5.53;;;4.87;;
8139;SDS011;4111;50.972;7.072;2022-07-30T02:57:28;7.53;;;4.70;;
8139;SDS011;4111;50.972;7.072;2022-07-30T02:59:56;4.87;;;3.90;;
8139;SDS011;4111;50.972;7.072;2022-07-30T03:02:25;4.83;;;3.83;;
8139;SDS011;4111;50.972;7.072;2022-07-30T03:04:56;5.23;;;4.27;;
8139;SDS011;4111;50.972;7.072;2022-07-30T03:07:25;5.87;;;3.70;;
8139;SDS011;4111;50.972;7.072;2022-07-30T03:09:53;5.00;;;4.00;;
8139;SDS011;4111;50.972;7.072;2022-07-30T03:12:21;4.40;;;3.80;;
8139;SDS011;4111;50.972;7.072;2022-07-30T03:14:50;6.83;;;4.00;;
8139;SDS011;4111;50.972;7.072;2022-07-30T03:17:17;6.20;;;3.93;;
8139;SDS011;4111;50.972;7.072;2022-07-30T03:19:47;4.27;;;3.73;;
8139;SDS011;4111;50.972;7.072;2022-07-30T03:22:15;5.00;;;4.00;;
8139;SDS011;4111;50.972;7.072;2022-07-30T03:24:44;6.40;;;3.77;;
8139;SDS011;4111;50.972;7.072;2022-07-30T03:27:13;3.80;;;3.50;;
8139;SDS011;4111;50.972;7.072;2022-07-30T03:29:42;3.80;;;3.40;;
8139;SDS011;4111;50.972;7.072;2022-07-30T03:32:11;4.47;;;3.80;;
8139;SDS011;4111;50.972;7.072;2022-07-30T03:34:40;4.37;;;3.97;;
8139;SDS011;4111;50.972;7.072;2022-07-30T03:37:08;5.03;;;3.73;;
8139;SDS011;4111;50.972;7.072;2022-07-30T03:39:36;4.30;;;3.67;;
8139;SDS011;4111;50.972;7.072;2022-07-30T03:42:05;6.17;;;4.03;;
8139;SDS011;4111;50.972;7.072;2022-07-30T03:44:33;6.17;;;4.07;;
8139;SDS011;4111;50.972;7.072;2022-07-30T03:47:00;3.80;;;3.50;;
8139;SDS011;4111;50.972;7.072;2022-07-30T03:49:30;7.03;;;4.60;;
8139;SDS011;4111;50.972;7.072;2022-07-30T03:51:58;5.40;;;4.23;;
8139;SDS011;4111;50.972;7.072;2022-07-30T03:54:26;4.40;;;3.90;;
8139;SDS011;4111;50.972;7.072;2022-07-30T03:56:53;4.77;;;4.20;;
8139;SDS011;4111;50.972;7.072;2022-07-30T03:59:19;6.50;;;4.17;;
8139;SDS011;4111;50.972;7.072;2022-07-30T04:01:46;4.77;;;3.80;;
8139;SDS011;4111;50.972;7.072;2022-07-30T04:04:12;5.37;;;4.47;;
8139;SDS011;4111;50.972;7.072;2022-07-30T04:06:39;6.13;;;4.67;;
8139;SDS011;4111;50.972;7.072;2022-07-30T04:09:09;5.53;;;4.20;;
8139;SDS011;4111;50.972;7.072;2022-07-30T04:11:36;7.53;;;4.60;;
8139;SDS011;4111;50.972;7.072;2022-07-30T04:14:07;6.37;;;4.30;;
8139;SDS011;4111;50.972;7.072;2022-07-30T04:16:36;4.67;;;4.27;;
8139;SDS011;4111;50.972;7.072;2022-07-30T04:19:09;4.83;;;4.40;;
8139;SDS011;4111;50.972;7.072;2022-07-30T04:21:40;4.70;;;4.30;;
8139;SDS011;4111;50.972;7.072;2022-07-30T04:24:09;10.57;;;4.90;;
8139;SDS011;4111;50.972;7.072;2022-07-30T04:26:38;5.70;;;4.40;;
8139;SDS011;4111;50.972;7.072;2022-07-30T04:29:06;5.77;;;4.57;;
8139;SDS011;4111;50.972;7.072;2022-07-30T04:31:39;5.30;;;4.07;;
8139;SDS011;4111;50.972;7.072;2022-07-30T04:34:07;4.83;;;4.30;;
8139;SDS011;4111;50.972;7.072;2022-07-30T04:36:33;5.80;;;4.97;;
8139;SDS011;4111;50.972;7.072;2022-07-30T04:39:01;7.47;;;4.30;;
8139;SDS011;4111;50.972;7.072;2022-07-30T04:41:28;4.83;;;4.03;;
8139;SDS011;4111;50.972;7.072;2022-07-30T04:44:15;7.33;;;4.93;;
8139;SDS011;4111;50.972;7.072;2022-07-30T04:46:45;6.67;;;4.80;;
8139;SDS011;4111;50.972;7.072;2022-07-30T04:49:13;8.33;;;4.90;;
8139;SDS011;4111;50.972;7.072;2022-07-30T04:51:41;4.80;;;4.40;;
8139;SDS011;4111;50.972;7.072;2022-07-30T04:54:10;5.17;;;4.67;;
8139;SDS011;4111;50.972;7.072;2022-07-30T04:56:41;7.83;;;5.27;;
8139;SDS011;4111;50.972;7.072;2022-07-30T04:59:19;7.40;;;5.03;;
8139;SDS011;4111;50.972;7.072;2022-07-30T05:01:47;5.93;;;4.60;;
8139;SDS011;4111;50.972;7.072;2022-07-30T05:04:15;5.50;;;5.00;;
8139;SDS011;4111;50.972;7.072;2022-07-30T05:06:44;6.63;;;5.20;;
8139;SDS011;4111;50.972;7.072;2022-07-30T05:09:11;7.13;;;4.93;;
8139;SDS011;4111;50.972;7.072;2022-07-30T05:11:40;10.87;;;5.10;;
8139;SDS011;4111;50.972;7.072;2022-07-30T05:14:06;6.57;;;5.40;;
8139;SDS011;4111;50.972;7.072;2022-07-30T05:16:34;5.57;;;5.07;;
8139;SDS011;4111;50.972;7.072;2022-07-30T05:19:00;6.00;;;5.40;;
8139;SDS011;4111;50.972;7.072;2022-07-30T05:21:32;7.87;;;6.33;;
8139;SDS011;4111;50.972;7.072;2022-07-30T05:23:59;9.90;;;6.20;;
8139;SDS011;4111;50.972;7.072;2022-07-30T05:26:26;12.00;;;6.50;;
8139;SDS011;4111;50.972;7.072;2022-07-30T05:28:53;10.23;;;7.83;;
8139;SDS011;4111;50.972;7.072;2022-07-30T05:31:22;11.20;;;8.17;;
8139;SDS011;4111;50.972;7.072;2022-07-30T05:33:49;11.97;;;8.47;;
8139;SDS011;4111;50.972;7.072;2022-07-30T05:36:17;9.77;;;8.67;;
8139;SDS011;4111;50.972;7.072;2022-07-30T05:38:46;13.17;;;9.30;;
8139;SDS011;4111;50.972;7.072;2022-07-30T05:41:13;12.07;;;8.83;;
8139;SDS011;4111;50.972;7.072;2022-07-30T05:43:57;15.87;;;9.57;;
8139;SDS011;4111;50.972;7.072;2022-07-30T05:46:24;13.73;;;10.00;;
8139;SDS011;4111;50.972;7.072;2022-07-30T05:48:50;11.23;;;10.13;;
8139;SDS011;4111;50.972;7.072;2022-07-30T05:51:17;13.73;;;10.50;;
8139;SDS011;4111;50.972;7.072;2022-07-30T05:53:45;15.97;;;9.60;;
8139;SDS011;4111;50.972;7.072;2022-07-30T05:56:12;10.30;;;9.00;;
8139;SDS011;4111;50.972;7.072;2022-07-30T05:58:39;16.10;;;9.93;;
8139;SDS011;4111;50.972;7.072;2022-07-30T06:01:05;16.40;;;9.90;;
8139;SDS011;4111;50.972;7.072;2022-07-30T06:03:31;12.40;;;10.23;;
8139;SDS011;4111;50.972;7.072;2022-07-30T06:06:01;14.80;;;10.97;;
8139;SDS011;4111;50.972;7.072;2022-07-30T06:08:28;14.87;;;11.07;;
8139;SDS011;4111;50.972;7.072;2022-07-30T06:10:55;12.60;;;11.27;;
8139;SDS011;4111;50.972;7.072;2022-07-30T06:13:21;20.73;;;11.23;;
8139;SDS011;4111;50.972;7.072;2022-07-30T06:15:48;18.70;;;10.70;;
8139;SDS011;4111;50.972;7.072;2022-07-30T06:18:14;14.13;;;11.37;;
8139;SDS011;4111;50.972;7.072;2022-07-30T06:20:41;20.43;;;12.20;;
8139;SDS011;4111;50.972;7.072;2022-07-30T06:23:08;17.73;;;13.20;;
8139;SDS011;4111;50.972;7.072;2022-07-30T06:25:34;17.13;;;12.13;;
8139;SDS011;4111;50.972;7.072;2022-07-30T06:28:04;18.90;;;12.93;;
8139;SDS011;4111;50.972;7.072;2022-07-30T06:30:50;18.30;;;13.87;;
8139;SDS011;4111;50.972;7.072;2022-07-30T06:33:17;17.67;;;12.90;;
8139;SDS011;4111;50.972;7.072;2022-07-30T06:35:43;17.10;;;14.07;;
8139;SDS011;4111;50.972;7.072;2022-07-30T06:38:10;18.17;;;15.17;;
8139;SDS011;4111;50.972;7.072;2022-07-30T06:40:37;19.03;;;13.93;;
8139;SDS011;4111;50.972;7.072;2022-07-30T06:43:04;24.07;;;15.43;;
8139;SDS011;4111;50.972;7.072;2022-07-30T06:45:31;16.90;;;13.90;;
8139;SDS011;4111;50.972;7.072;2022-07-30T06:47:57;18.40;;;14.33;;
8139;SDS011;4111;50.972;7.072;2022-07-30T06:50:24;14.13;;;12.57;;
8139;SDS011;4111;50.972;7.072;2022-07-30T06:52:51;17.37;;;13.47;;
8139;SDS011;4111;50.972;7.072;2022-07-30T06:55:18;19.60;;;14.10;;
8139;SDS011;4111;50.972;7.072;2022-07-30T06:57:44;19.67;;;15.77;;
8139;SDS011;4111;50.972;7.072;2022-07-30T07:00:11;21.57;;;16.30;;
8139;SDS011;4111;50.972;7.072;2022-07-30T07:02:38;24.70;;;15.53;;
8139;SDS011;4111;50.972;7.072;2022-07-30T07:05:04;23.30;;;15.50;;
8139;SDS011;4111;50.972;7.072;2022-07-30T07:07:35;27.37;;;21.47;;
8139;SDS011;4111;50.972;7.072;2022-07-30T07:10:09;23.90;;;21.27;;
8139;SDS011;4111;50.972;7.072;2022-07-30T07:12:36;37.97;;;23.93;;
8139;SDS011;4111;50.972;7.072;2022-07-30T07:15:03;27.93;;;23.60;;
8139;SDS011;4111;50.972;7.072;2022-07-30T07:17:30;33.20;;;24.80;;
8139;SDS011;4111;50.972;7.072;2022-07-30T07:19:57;28.87;;;25.77;;
8139;SDS011;4111;50.972;7.072;2022-07-30T07:22:27;33.27;;;29.37;;
8139;SDS011;4111;50.972;7.072;2022-07-30T07:24:54;34.27;;;30.57;;
8139;SDS011;4111;50.972;7.072;2022-07-30T07:27:21;32.90;;;29.50;;
8139;SDS011;4111;50.972;7.072;2022-07-30T07:29:47;31.60;;;28.30;;
8139;SDS011;4111;50.972;7.072;2022-07-30T07:32:29;28.23;;;25.27;;
8139;SDS011;4111;50.972;7.072;2022-07-30T07:34:56;27.53;;;24.73;;
8139;SDS011;4111;50.972;7.072;2022-07-30T07:37:22;30.57;;;23.67;;
8139;SDS011;4111;50.972;7.072;2022-07-30T07:39:48;28.80;;;23.00;;
8139;SDS011;4111;50.972;7.072;2022-07-30T07:42:15;25.50;;;22.20;;
8139;SDS011;4111;50.972;7.072;2022-07-30T07:44:42;27.33;;;20.63;;
8139;SDS011;4111;50.972;7.072;2022-07-30T07:47:08;28.33;;;21.03;;
8139;SDS011;4111;50.972;7.072;2022-07-30T07:49:35;23.77;;;21.13;;
8139;SDS011;4111;50.972;7.072;2022-07-30T07:52:01;26.53;;;20.20;;
8139;SDS011;4111;50.972;7.072;2022-07-30T07:54:28;26.33;;;19.87;;
8139;SDS011;4111;50.972;7.072;2022-07-30T07:56:54;26.13;;;20.73;;
8139;SDS011;4111;50.972;7.072;2022-07-30T07:59:21;30.20;;;21.90;;
8139;SDS011;4111;50.972;7.072;2022-07-30T08:02:00;27.57;;;23.13;;
8139;SDS011;4111;50.972;7.072;2022-07-30T08:04:29;27.03;;;22.17;;
8139;SDS011;4111;50.972;7.072;2022-07-30T08:06:58;22.73;;;19.20;;
8139;SDS011;4111;50.972;7.072;2022-07-30T08:09:25;21.43;;;18.47;;
8139;SDS011;4111;50.972;7.072;2022-07-30T08:12:09;21.37;;;15.97;;
8139;SDS011;4111;50.972;7.072;2022-07-30T08:14:35;19.70;;;16.70;;
8139;SDS011;4111;50.972;7.072;2022-07-30T08:17:02;22.20;;;19.80;;
8139;SDS011;4111;50.972;7.072;2022-07-30T08:19:29;23.67;;;18.70;;
8139;SDS011;4111;50.972;7.072;2022-07-30T08:21:56;21.07;;;17.43;;
8139;SDS011;4111;50.972;7.072;2022-07-30T08:24:24;22.53;;;16.77;;
8139;SDS011;4111;50.972;7.072;2022-07-30T08:26:51;21.07;;;17.93;;
8139;SDS011;4111;50.972;7.072;2022-07-30T08:29:17;20.93;;;16.10;;
8139;SDS011;4111;50.972;7.072;2022-07-30T08:31:44;18.90;;;13.80;;
8139;SDS011;4111;50.972;7.072;2022-07-30T08:34:10;19.07;;;13.40;;
8139;SDS011;4111;50.972;7.072;2022-07-30T08:36:38;15.63;;;12.63;;
8139;SDS011;4111;50.972;7.072;2022-07-30T08:39:06;16.93;;;13.10;;
8139;SDS011;4111;50.972;7.072;2022-07-30T08:41:33;18.07;;;13.57;;
8139;SDS011;4111;50.972;7.072;2022-07-30T08:44:01;19.07;;;13.77;;
8139;SDS011;4111;50.972;7.072;2022-07-30T08:46:29;14.83;;;11.97;;
8139;SDS011;4111;50.972;7.072;2022-07-30T08:48:58;15.67;;;10.47;;
8139;SDS011;4111;50.972;7.072;2022-07-30T08:51:36;13.83;;;9.93;;
8139;SDS011;4111;50.972;7.072;2022-07-30T08:54:03;10.83;;;9.17;;
8139;SDS011;4111;50.972;7.072;2022-07-30T08:56:31;14.67;;;8.47;;
8139;SDS011;4111;50.972;7.072;2022-07-30T08:58:59;14.63;;;8.67;;
8139;SDS011;4111;50.972;7.072;2022-07-30T09:01:26;9.17;;;7.40;;
8139;SDS011;4111;50.972;7.072;2022-07-30T09:03:53;11.40;;;8.00;;
8139;SDS011;4111;50.972;7.072;2022-07-30T09:06:20;11.03;;;8.10;;
8139;SDS011;4111;50.972;7.072;2022-07-30T09:08:46;12.88;;;7.85;;
8139;SDS011;4111;50.972;7.072;2022-07-30T09:11:13;12.82;;;7.88;;
8139;SDS011;4111;50.972;7.072;2022-07-30T09:13:39;11.48;;;6.53;;
8139;SDS011;4111;50.972;7.072;2022-07-30T09:16:17;12.67;;;7.70;;
8139;SDS011;4111;50.972;7.072;2022-07-30T09:18:53;11.27;;;7.07;;
8139;SDS011;4111;50.972;7.072;2022-07-30T09:21:26;9.23;;;6.37;;
8139;SDS011;4111;50.972;7.072;2022-07-30T09:26:31;9.00;;;5.70;;
8139;SDS011;4111;50.972;7.072;2022-07-30T09:29:17;8.35;;;5.82;;
8139;SDS011;4111;50.972;7.072;2022-07-30T09:32:19;11.13;;;6.40;;
8139;SDS011;4111;50.972;7.072;2022-07-30T09:34:38;11.98;;;7.22;;
8139;SDS011;4111;50.972;7.072;2022-07-30T09:39:38;11.37;;;6.53;;
8139;SDS011;4111;50.972;7.072;2022-07-30T09:42:20;14.32;;;7.07;;
8139;SDS011;4111;50.972;7.072;2022-07-30T09:44:48;11.38;;;6.80;;
8139;SDS011;4111;50.972;7.072;2022-07-30T09:47:28;11.07;;;5.93;;
8139;SDS011;4111;50.972;7.072;2022-07-30T09:50:07;11.80;;;6.25;;
8139;SDS011;4111;50.972;7.072;2022-07-30T09:52:35;12.80;;;7.28;;
8139;SDS011;4111;50.972;7.072;2022-07-30T09:55:10;11.63;;;7.20;;
8139;SDS011;4111;50.972;7.072;2022-07-30T09:57:56;13.68;;;6.95;;
8139;SDS011;4111;50.972;7.072;2022-07-30T10:00:27;14.50;;;7.10;;
8139;SDS011;4111;50.972;7.072;2022-07-30T10:02:56;8.40;;;6.65;;
8139;SDS011;4111;50.972;7.072;2022-07-30T10:05:23;15.27;;;7.63;;
8139;SDS011;4111;50.972;7.072;2022-07-30T10:07:51;12.07;;;6.78;;
8139;SDS011;4111;50.972;7.072;2022-07-30T10:10:24;12.15;;;7.65;;
8139;SDS011;4111;50.972;7.072;2022-07-30T10:12:57;12.88;;;6.75;;
8139;SDS011;4111;50.972;7.072;2022-07-30T10:15:30;13.27;;;6.38;;
8139;SDS011;4111;50.972;7.072;2022-07-30T10:18:00;10.07;;;7.43;;
8139;SDS011;4111;50.972;7.072;2022-07-30T10:20:31;9.27;;;7.18;;
8139;SDS011;4111;50.972;7.072;2022-07-30T10:23:00;12.88;;;7.18;;
8139;SDS011;4111;50.972;7.072;2022-07-30T10:25:34;11.73;;;6.60;;
8139;SDS011;4111;50.972;7.072;2022-07-30T10:28:14;10.65;;;6.50;;
8139;SDS011;4111;50.972;7.072;2022-07-30T10:30:43;10.32;;;7.70;;
8139;SDS011;4111;50.972;7.072;2022-07-30T10:33:10;8.93;;;6.93;;
8139;SDS011;4111;50.972;7.072;2022-07-30T10:35:57;9.48;;;7.03;;
8139;SDS011;4111;50.972;7.072;2022-07-30T10:38:28;8.23;;;6.93;;
8139;SDS011;4111;50.972;7.072;2022-07-30T10:41:05;14.48;;;7.45;;
8139;SDS011;4111;50.972;7.072;2022-07-30T10:43:54;12.85;;;8.13;;
8139;SDS011;4111;50.972;7.072;2022-07-30T10:47:02;13.63;;;7.82;;
8139;SDS011;4111;50.972;7.072;2022-07-30T10:49:34;10.75;;;6.45;;
8139;SDS011;4111;50.972;7.072;2022-07-30T10:52:08;15.27;;;7.35;;
8139;SDS011;4111;50.972;7.072;2022-07-30T10:54:36;8.68;;;7.53;;
8139;SDS011;4111;50.972;7.072;2022-07-30T11:02:15;10.90;;;6.53;;
8139;SDS011;4111;50.972;7.072;2022-07-30T11:04:45;10.00;;;5.60;;
8139;SDS011;4111;50.972;7.072;2022-07-30T11:09:52;10.15;;;5.57;;
8139;SDS011;4111;50.972;7.072;2022-07-30T11:15:11;8.70;;;4.50;;
8139;SDS011;4111;50.972;7.072;2022-07-30T11:18:06;4.63;;;3.63;;
8139;SDS011;4111;50.972;7.072;2022-07-30T11:20:39;5.88;;;3.20;;
8139;SDS011;4111;50.972;7.072;2022-07-30T11:25:46;6.90;;;4.45;;
8139;SDS011;4111;50.972;7.072;2022-07-30T11:28:36;9.70;;;4.72;;
8139;SDS011;4111;50.972;7.072;2022-07-30T11:31:24;6.32;;;4.90;;
8139;SDS011;4111;50.972;7.072;2022-07-30T11:47:49;10.93;;;5.00;;
8139;SDS011;4111;50.972;7.072;2022-07-30T11:52:51;7.78;;;4.10;;
8139;SDS011;4111;50.972;7.072;2022-07-30T11:55:22;5.88;;;4.35;;
8139;SDS011;4111;50.972;7.072;2022-07-30T11:57:52;11.75;;;3.63;;
8139;SDS011;4111;50.972;7.072;2022-07-30T12:00:22;6.88;;;4.57;;
8139;SDS011;4111;50.972;7.072;2022-07-30T12:02:50;7.38;;;4.70;;
8139;SDS011;4111;50.972;7.072;2022-07-30T12:05:23;8.23;;;4.57;;
8139;SDS011;4111;50.972;7.072;2022-07-30T12:07:57;6.60;;;4.47;;
8139;SDS011;4111;50.972;7.072;2022-07-30T12:10:24;5.78;;;4.47;;
8139;SDS011;4111;50.972;7.072;2022-07-30T12:12:52;6.70;;;4.10;;
8139;SDS011;4111;50.972;7.072;2022-07-30T12:15:42;6.72;;;4.05;;
8139;SDS011;4111;50.972;7.072;2022-07-30T12:18:10;10.98;;;4.20;;
8139;SDS011;4111;50.972;7.072;2022-07-30T12:23:22;5.25;;;3.72;;
8139;SDS011;4111;50.972;7.072;2022-07-30T12:25:49;4.00;;;3.25;;
8139;SDS011;4111;50.972;7.072;2022-07-30T12:28:26;5.60;;;3.45;;
8139;SDS011;4111;50.972;7.072;2022-07-30T12:30:54;6.13;;;3.50;;
8139;SDS011;4111;50.972;7.072;2022-07-30T12:33:22;4.90;;;3.65;;
8139;SDS011;4111;50.972;7.072;2022-07-30T12:35:52;7.55;;;3.95;;
8139;SDS011;4111;50.972;7.072;2022-07-30T12:38:21;5.70;;;3.75;;
8139;SDS011;4111;50.972;7.072;2022-07-30T12:40:56;5.50;;;3.60;;
8139;SDS011;4111;50.972;7.072;2022-07-30T12:46:22;4.50;;;3.08;;
8139;SDS011;4111;50.972;7.072;2022-07-30T12:48:57;6.88;;;3.28;;
8139;SDS011;4111;50.972;7.072;2022-07-30T12:51:51;6.95;;;3.25;;
8139;SDS011;4111;50.972;7.072;2022-07-30T12:54:25;5.38;;;2.65;;
8139;SDS011;4111;50.972;7.072;2022-07-30T12:57:02;4.38;;;2.97;;
8139;SDS011;4111;50.972;7.072;2022-07-30T12:59:31;3.75;;;2.80;;
8139;SDS011;4111;50.972;7.072;2022-07-30T13:01:58;8.68;;;3.00;;
8139;SDS011;4111;50.972;7.072;2022-07-30T13:04:26;9.43;;;2.65;;
8139;SDS011;4111;50.972;7.072;2022-07-30T13:07:05;13.63;;;3.28;;
8139;SDS011;4111;50.972;7.072;2022-07-30T13:09:34;5.05;;;2.00;;
8139;SDS011;4111;50.972;7.072;2022-07-30T13:12:02;3.80;;;2.13;;
8139;SDS011;4111;50.972;7.072;2022-07-30T13:14:29;4.20;;;2.50;;
8139;SDS011;4111;50.972;7.072;2022-07-30T13:16:56;3.47;;;2.22;;
8139;SDS011;4111;50.972;7.072;2022-07-30T13:19:24;2.30;;;2.10;;
8139;SDS011;4111;50.972;7.072;2022-07-30T13:21:51;4.38;;;2.00;;
8139;SDS011;4111;50.972;7.072;2022-07-30T13:24:18;5.72;;;2.58;;
8139;SDS011;4111;50.972;7.072;2022-07-30T13:26:45;8.30;;;2.78;;
8139;SDS011;4111;50.972;7.072;2022-07-30T13:29:15;3.53;;;2.65;;
8139;SDS011;4111;50.972;7.072;2022-07-30T13:31:42;4.05;;;2.13;;
8139;SDS011;4111;50.972;7.072;2022-07-30T13:34:09;2.90;;;1.95;;
8139;SDS011;4111;50.972;7.072;2022-07-30T13:36:37;2.25;;;2.05;;
8139;SDS011;4111;50.972;7.072;2022-07-30T13:39:04;2.65;;;2.10;;
8139;SDS011;4111;50.972;7.072;2022-07-30T13:41:30;2.20;;;2.00;;
8139;SDS011;4111;50.972;7.072;2022-07-30T13:43:58;3.15;;;2.03;;
8139;SDS011;4111;50.972;7.072;2022-07-30T13:46:24;6.57;;;2.22;;
8139;SDS011;4111;50.972;7.072;2022-07-30T13:48:51;7.53;;;1.98;;
8139;SDS011;4111;50.972;7.072;2022-07-30T13:51:17;2.08;;;1.85;;
8139;SDS011;4111;50.972;7.072;2022-07-30T13:53:44;4.00;;;1.90;;
8139;SDS011;4111;50.972;7.072;2022-07-30T13:56:11;2.20;;;2.00;;
8139;SDS011;4111;50.972;7.072;2022-07-30T13:58:38;2.38;;;2.13;;
8139;SDS011;4111;50.972;7.072;2022-07-30T14:01:05;5.40;;;2.28;;
8139;SDS011;4111;50.972;7.072;2022-07-30T14:03:32;6.47;;;2.03;;
8139;SDS011;4111;50.972;7.072;2022-07-30T14:06:00;3.20;;;2.13;;
8139;SDS011;4111;50.972;7.072;2022-07-30T14:08:36;3.55;;;2.15;;
8139;SDS011;4111;50.972;7.072;2022-07-30T14:11:02;2.05;;;1.88;;
8139;SDS011;4111;50.972;7.072;2022-07-30T14:13:29;2.20;;;1.95;;
8139;SDS011;4111;50.972;7.072;2022-07-30T14:15:55;1.80;;;1.60;;
8139;SDS011;4111;50.972;7.072;2022-07-30T14:18:22;2.15;;;1.95;;
8139;SDS011;4111;50.972;7.072;2022-07-30T14:20:48;4.70;;;3.58;;
8139;SDS011;4111;50.972;7.072;2022-07-30T14:23:18;2.88;;;2.22;;
8139;SDS011;4111;50.972;7.072;2022-07-30T14:25:45;5.38;;;2.05;;
8139;SDS011;4111;50.972;7.072;2022-07-30T14:28:12;3.65;;;1.85;;
8139;SDS011;4111;50.972;7.072;2022-07-30T14:30:38;4.50;;;2.03;;
8139;SDS011;4111;50.972;7.072;2022-07-30T14:33:05;3.25;;;1.80;;
8139;SDS011;4111;50.972;7.072;2022-07-30T14:35:31;2.20;;;1.60;;
8139;SDS011;4111;50.972;7.072;2022-07-30T14:37:58;2.67;;;1.40;;
8139;SDS011;4111;50.972;7.072;2022-07-30T14:40:24;5.10;;;1.88;;
8139;SDS011;4111;50.972;7.072;2022-07-30T14:42:51;2.40;;;1.77;;
8139;SDS011;4111;50.972;7.072;2022-07-30T14:45:21;3.20;;;1.75;;
8139;SDS011;4111;50.972;7.072;2022-07-30T14:47:47;3.85;;;1.80;;
8139;SDS011;4111;50.972;7.072;2022-07-30T14:50:14;3.80;;;2.13;;
8139;SDS011;4111;50.972;7.072;2022-07-30T14:52:40;2.80;;;1.55;;
8139;SDS011;4111;50.972;7.072;2022-07-30T14:55:07;2.08;;;1.88;;
8139;SDS011;4111;50.972;7.072;2022-07-30T14:57:34;1.80;;;1.70;;
8139;SDS011;4111;50.972;7.072;2022-07-30T15:00:02;2.60;;;1.60;;
8139;SDS011;4111;50.972;7.072;2022-07-30T15:02:30;1.38;;;1.27;;
8139;SDS011;4111;50.972;7.072;2022-07-30T15:04:57;5.78;;;1.90;;
8139;SDS011;4111;50.972;7.072;2022-07-30T15:07:23;1.67;;;1.40;;
8139;SDS011;4111;50.972;7.072;2022-07-30T15:09:49;2.53;;;1.50;;
8139;SDS011;4111;50.972;7.072;2022-07-30T15:12:16;2.97;;;1.50;;
8139;SDS011;4111;50.972;7.072;2022-07-30T15:14:52;3.63;;;1.70;;
8139;SDS011;4111;50.972;7.072;2022-07-30T15:17:18;2.75;;;1.42;;
8139;SDS011;4111;50.972;7.072;2022-07-30T15:19:46;4.50;;;1.38;;
8139;SDS011;4111;50.972;7.072;2022-07-30T15:22:16;2.42;;;1.65;;
8139;SDS011;4111;50.972;7.072;2022-07-30T15:24:44;3.72;;;1.55;;
8139;SDS011;4111;50.972;7.072;2022-07-30T15:27:10;4.35;;;1.77;;
8139;SDS011;4111;50.972;7.072;2022-07-30T15:29:37;5.28;;;1.98;;
8139;SDS011;4111;50.972;7.072;2022-07-30T15:32:03;3.30;;;1.70;;
8139;SDS011;4111;50.972;7.072;2022-07-30T15:34:31;3.40;;;1.88;;
8139;SDS011;4111;50.972;7.072;2022-07-30T15:37:00;3.10;;;2.50;;
8139;SDS011;4111;50.972;7.072;2022-07-30T15:39:27;2.30;;;1.83;;
8139;SDS011;4111;50.972;7.072;2022-07-30T15:41:55;2.90;;;2.00;;
8139;SDS011;4111;50.972;7.072;2022-07-30T15:44:22;3.00;;;2.70;;
8139;SDS011;4111;50.972;7.072;2022-07-30T15:46:49;2.10;;;1.80;;
8139;SDS011;4111;50.972;7.072;2022-07-30T15:49:15;2.30;;;1.70;;
8139;SDS011;4111;50.972;7.072;2022-07-30T15:51:42;4.28;;;2.40;;
8139;SDS011;4111;50.972;7.072;2022-07-30T15:54:14;4.28;;;1.55;;
8139;SDS011;4111;50.972;7.072;2022-07-30T15:56:47;4.20;;;2.00;;
8139;SDS011;4111;50.972;7.072;2022-07-30T15:59:14;3.83;;;1.60;;
8139;SDS011;4111;50.972;7.072;2022-07-30T16:01:41;3.20;;;1.65;;